sensor_id;sensor_type;location;lat;lon;timestamp;temperature;humidity
65752;DHT22;52486;51.098;13.770;2022-08-19T00:00:11;30.00;43.70
65752;DHT22;52486;51.098;13.770;2022-08-19T00:02:40;30.00;43.70
65752;DHT22;52486;51.098;13.770;2022-08-19T00:05:06;29.90;43.70
65752;DHT22;52486;51.098;13.770;2022-08-19T00:07:32;29.90;43.70
65752;DHT22;52486;51.098;13.770;2022-08-19T00:09:58;29.90;43.70
65752;DHT22;52486;51.098;13.770;2022-08-19T00:12:23;29.90;43.70
65752;DHT22;52486;51.098;13.770;2022-08-19T00:14:49;29.90;43.70
65752;DHT22;52486;51.098;13.770;2022-08-19T00:17:15;29.90;44.40
65752;DHT22;52486;51.098;13.770;2022-08-19T00:19:40;29.90;43.70
65752;DHT22;52486;51.098;13.770;2022-08-19T00:22:06;29.90;43.70
65752;DHT22;52486;51.098;13.770;2022-08-19T00:24:34;29.90;43.80
65752;DHT22;52486;51.098;13.770;2022-08-19T00:26:59;29.90;43.80
65752;DHT22;52486;51.098;13.770;2022-08-19T00:29:27;29.90;43.80
65752;DHT22;52486;51.098;13.770;2022-08-19T00:31:52;29.90;43.80
65752;DHT22;52486;51.098;13.770;2022-08-19T00:34:22;29.90;43.80
65752;DHT22;52486;51.098;13.770;2022-08-19T00:36:48;29.90;43.90
65752;DHT22;52486;51.098;13.770;2022-08-19T00:39:18;29.90;43.80
65752;DHT22;52486;51.098;13.770;2022-08-19T00:41:44;29.90;43.90
65752;DHT22;52486;51.098;13.770;2022-08-19T00:44:17;29.90;43.90
65752;DHT22;52486;51.098;13.770;2022-08-19T00:46:47;29.90;43.90
65752;DHT22;52486;51.098;13.770;2022-08-19T00:49:24;29.80;43.90
65752;DHT22;52486;51.098;13.770;2022-08-19T00:51:57;29.80;43.90
65752;DHT22;52486;51.098;13.770;2022-08-19T00:54:24;29.80;43.90
65752;DHT22;52486;51.098;13.770;2022-08-19T00:56:50;29.80;43.90
65752;DHT22;52486;51.098;13.770;2022-08-19T00:59:17;29.80;43.90
65752;DHT22;52486;51.098;13.770;2022-08-19T01:01:45;29.80;43.90
65752;DHT22;52486;51.098;13.770;2022-08-19T01:04:11;29.80;44.00
65752;DHT22;52486;51.098;13.770;2022-08-19T01:06:38;29.80;44.00
65752;DHT22;52486;51.098;13.770;2022-08-19T01:09:06;29.80;44.00
65752;DHT22;52486;51.098;13.770;2022-08-19T01:11:35;29.80;44.00
65752;DHT22;52486;51.098;13.770;2022-08-19T01:14:02;29.80;44.00
65752;DHT22;52486;51.098;13.770;2022-08-19T01:16:28;29.80;44.00
65752;DHT22;52486;51.098;13.770;2022-08-19T01:18:55;29.80;44.00
65752;DHT22;52486;51.098;13.770;2022-08-19T01:21:37;29.80;44.00
65752;DHT22;52486;51.098;13.770;2022-08-19T01:24:05;29.80;44.10
65752;DHT22;52486;51.098;13.770;2022-08-19T01:26:31;29.80;44.00
65752;DHT22;52486;51.098;13.770;2022-08-19T01:29:03;29.80;44.10
65752;DHT22;52486;51.098;13.770;2022-08-19T01:31:29;29.80;44.10
65752;DHT22;52486;51.098;13.770;2022-08-19T01:33:58;29.80;44.10
65752;DHT22;52486;51.098;13.770;2022-08-19T01:36:30;29.80;44.10
65752;DHT22;52486;51.098;13.770;2022-08-19T01:38:56;29.80;44.10
65752;DHT22;52486;51.098;13.770;2022-08-19T01:41:23;29.80;44.10
65752;DHT22;52486;51.098;13.770;2022-08-19T01:43:49;29.80;44.10
65752;DHT22;52486;51.098;13.770;2022-08-19T01:46:16;29.80;44.20
65752;DHT22;52486;51.098;13.770;2022-08-19T01:48:43;29.80;44.20
65752;DHT22;52486;51.098;13.770;2022-08-19T01:51:10;29.80;44.20
65752;DHT22;52486;51.098;13.770;2022-08-19T01:53:36;29.80;44.20
65752;DHT22;52486;51.098;13.770;2022-08-19T01:56:03;29.80;44.20
65752;DHT22;52486;51.098;13.770;2022-08-19T01:58:34;29.80;44.20
65752;DHT22;52486;51.098;13.770;2022-08-19T02:01:02;29.80;44.20
65752;DHT22;52486;51.098;13.770;2022-08-19T02:03:28;29.70;44.20
65752;DHT22;52486;51.098;13.770;2022-08-19T02:05:59;29.70;44.30
65752;DHT22;52486;51.098;13.770;2022-08-19T02:08:27;29.80;44.30
65752;DHT22;52486;51.098;13.770;2022-08-19T02:10:53;29.80;44.30
65752;DHT22;52486;51.098;13.770;2022-08-19T02:13:19;29.80;44.30
65752;DHT22;52486;51.098;13.770;2022-08-19T02:15:45;29.80;44.40
65752;DHT22;52486;51.098;13.770;2022-08-19T02:18:11;29.80;44.40
65752;DHT22;52486;51.098;13.770;2022-08-19T02:20:39;29.80;44.40
65752;DHT22;52486;51.098;13.770;2022-08-19T02:23:06;29.70;44.30
65752;DHT22;52486;51.098;13.770;2022-08-19T02:25:31;29.70;44.30
65752;DHT22;52486;51.098;13.770;2022-08-19T02:27:57;29.70;44.40
65752;DHT22;52486;51.098;13.770;2022-08-19T02:30:23;29.70;44.40
65752;DHT22;52486;51.098;13.770;2022-08-19T02:32:50;29.70;44.40
65752;DHT22;52486;51.098;13.770;2022-08-19T02:35:16;29.70;44.40
65752;DHT22;52486;51.098;13.770;2022-08-19T02:37:43;29.70;44.40
65752;DHT22;52486;51.098;13.770;2022-08-19T02:40:29;29.70;44.40
65752;DHT22;52486;51.098;13.770;2022-08-19T02:42:57;29.70;44.40
65752;DHT22;52486;51.098;13.770;2022-08-19T02:45:23;29.70;44.50
65752;DHT22;52486;51.098;13.770;2022-08-19T02:47:48;29.70;44.40
65752;DHT22;52486;51.098;13.770;2022-08-19T02:50:14;29.70;44.50
65752;DHT22;52486;51.098;13.770;2022-08-19T02:52:40;29.70;44.50
65752;DHT22;52486;51.098;13.770;2022-08-19T02:55:06;29.70;44.50
65752;DHT22;52486;51.098;13.770;2022-08-19T02:57:32;29.70;44.50
65752;DHT22;52486;51.098;13.770;2022-08-19T02:59:58;29.70;44.50
65752;DHT22;52486;51.098;13.770;2022-08-19T03:02:24;29.70;44.60
65752;DHT22;52486;51.098;13.770;2022-08-19T03:04:50;29.70;44.60
65752;DHT22;52486;51.098;13.770;2022-08-19T03:07:17;29.70;44.60
65752;DHT22;52486;51.098;13.770;2022-08-19T03:09:44;29.70;44.60
65752;DHT22;52486;51.098;13.770;2022-08-19T03:12:10;29.70;44.60
65752;DHT22;52486;51.098;13.770;2022-08-19T03:14:36;29.70;44.60
65752;DHT22;52486;51.098;13.770;2022-08-19T03:17:03;29.70;44.60
65752;DHT22;52486;51.098;13.770;2022-08-19T03:19:30;29.70;44.60
65752;DHT22;52486;51.098;13.770;2022-08-19T03:21:57;29.70;44.70
65752;DHT22;52486;51.098;13.770;2022-08-19T03:24:24;29.70;45.40
65752;DHT22;52486;51.098;13.770;2022-08-19T03:26:54;29.70;45.40
65752;DHT22;52486;51.098;13.770;2022-08-19T03:29:28;29.70;44.70
65752;DHT22;52486;51.098;13.770;2022-08-19T03:31:54;29.60;44.60
65752;DHT22;52486;51.098;13.770;2022-08-19T03:34:25;29.70;44.80
65752;DHT22;52486;51.098;13.770;2022-08-19T03:36:56;29.70;44.80
65752;DHT22;52486;51.098;13.770;2022-08-19T03:39:23;29.70;44.80
65752;DHT22;52486;51.098;13.770;2022-08-19T03:41:51;29.70;44.80
65752;DHT22;52486;51.098;13.770;2022-08-19T03:44:20;29.70;44.80
65752;DHT22;52486;51.098;13.770;2022-08-19T03:46:49;29.70;44.80
65752;DHT22;52486;51.098;13.770;2022-08-19T03:49:15;29.60;44.70
65752;DHT22;52486;51.098;13.770;2022-08-19T03:51:42;29.60;44.70
65752;DHT22;52486;51.098;13.770;2022-08-19T03:54:11;29.60;44.80
65752;DHT22;52486;51.098;13.770;2022-08-19T03:56:39;29.60;44.80
65752;DHT22;52486;51.098;13.770;2022-08-19T03:59:08;29.60;44.80
65752;DHT22;52486;51.098;13.770;2022-08-19T04:01:35;29.60;44.90
65752;DHT22;52486;51.098;13.770;2022-08-19T04:04:01;29.60;44.80
65752;DHT22;52486;51.098;13.770;2022-08-19T04:06:29;29.60;44.80
65752;DHT22;52486;51.098;13.770;2022-08-19T04:08:56;29.70;44.90
65752;DHT22;52486;51.098;13.770;2022-08-19T04:11:29;29.60;44.80
65752;DHT22;52486;51.098;13.770;2022-08-19T04:13:56;29.60;44.90
65752;DHT22;52486;51.098;13.770;2022-08-19T04:16:24;29.60;44.90
65752;DHT22;52486;51.098;13.770;2022-08-19T04:18:54;29.60;44.90
65752;DHT22;52486;51.098;13.770;2022-08-19T04:21:24;29.60;44.90
65752;DHT22;52486;51.098;13.770;2022-08-19T04:23:49;29.60;45.00
65752;DHT22;52486;51.098;13.770;2022-08-19T04:26:21;29.60;45.00
65752;DHT22;52486;51.098;13.770;2022-08-19T04:28:46;29.60;45.00
65752;DHT22;52486;51.098;13.770;2022-08-19T04:31:18;29.60;45.00
65752;DHT22;52486;51.098;13.770;2022-08-19T04:33:44;29.60;45.10
65752;DHT22;52486;51.098;13.770;2022-08-19T04:36:19;29.60;45.10
65752;DHT22;52486;51.098;13.770;2022-08-19T04:38:47;29.60;45.10
65752;DHT22;52486;51.098;13.770;2022-08-19T04:41:12;29.60;45.10
65752;DHT22;52486;51.098;13.770;2022-08-19T04:43:57;29.60;45.10
65752;DHT22;52486;51.098;13.770;2022-08-19T04:46:22;29.60;45.10
65752;DHT22;52486;51.098;13.770;2022-08-19T04:48:48;29.60;45.10
65752;DHT22;52486;51.098;13.770;2022-08-19T04:51:13;29.60;45.20
65752;DHT22;52486;51.098;13.770;2022-08-19T04:53:41;29.60;45.20
65752;DHT22;52486;51.098;13.770;2022-08-19T04:56:10;29.60;45.20
65752;DHT22;52486;51.098;13.770;2022-08-19T04:58:37;29.60;45.20
65752;DHT22;52486;51.098;13.770;2022-08-19T05:01:04;29.60;45.20
65752;DHT22;52486;51.098;13.770;2022-08-19T05:03:30;29.60;45.20
65752;DHT22;52486;51.098;13.770;2022-08-19T05:06:04;29.60;45.20
65752;DHT22;52486;51.098;13.770;2022-08-19T05:08:34;29.60;45.30
65752;DHT22;52486;51.098;13.770;2022-08-19T05:11:06;29.60;45.30
65752;DHT22;52486;51.098;13.770;2022-08-19T05:13:32;29.60;45.30
65752;DHT22;52486;51.098;13.770;2022-08-19T05:15:58;29.60;45.40
65752;DHT22;52486;51.098;13.770;2022-08-19T05:18:25;29.60;45.30
65752;DHT22;52486;51.098;13.770;2022-08-19T05:21:12;29.60;45.40
65752;DHT22;52486;51.098;13.770;2022-08-19T05:23:57;29.60;45.40
65752;DHT22;52486;51.098;13.770;2022-08-19T05:26:24;29.60;45.40
65752;DHT22;52486;51.098;13.770;2022-08-19T05:28:52;29.60;45.40
65752;DHT22;52486;51.098;13.770;2022-08-19T05:31:18;29.60;45.40
65752;DHT22;52486;51.098;13.770;2022-08-19T05:33:44;29.60;45.40
65752;DHT22;52486;51.098;13.770;2022-08-19T05:36:10;29.60;45.40
65752;DHT22;52486;51.098;13.770;2022-08-19T05:38:36;29.60;45.50
65752;DHT22;52486;51.098;13.770;2022-08-19T05:41:09;29.40;48.00
65752;DHT22;52486;51.098;13.770;2022-08-19T05:43:36;29.20;50.20
65752;DHT22;52486;51.098;13.770;2022-08-19T05:46:06;29.20;49.70
65752;DHT22;52486;51.098;13.770;2022-08-19T05:48:38;29.20;49.90
65752;DHT22;52486;51.098;13.770;2022-08-19T05:51:05;29.10;51.30
65752;DHT22;52486;51.098;13.770;2022-08-19T05:53:32;29.00;50.90
65752;DHT22;52486;51.098;13.770;2022-08-19T05:56:04;28.90;51.40
65752;DHT22;52486;51.098;13.770;2022-08-19T05:58:29;28.70;52.30
65752;DHT22;52486;51.098;13.770;2022-08-19T06:00:56;28.60;52.10
65752;DHT22;52486;51.098;13.770;2022-08-19T06:03:21;28.70;52.00
65752;DHT22;52486;51.098;13.770;2022-08-19T06:05:47;28.70;51.80
65752;DHT22;52486;51.098;13.770;2022-08-19T06:08:13;28.80;51.90
65752;DHT22;52486;51.098;13.770;2022-08-19T06:10:38;28.70;52.00
65752;DHT22;52486;51.098;13.770;2022-08-19T06:13:04;28.80;52.00
65752;DHT22;52486;51.098;13.770;2022-08-19T06:15:31;28.70;52.30
65752;DHT22;52486;51.098;13.770;2022-08-19T06:17:56;28.70;52.60
65752;DHT22;52486;51.098;13.770;2022-08-19T06:20:22;28.50;52.70
65752;DHT22;52486;51.098;13.770;2022-08-19T06:22:49;28.40;53.00
65752;DHT22;52486;51.098;13.770;2022-08-19T06:25:18;28.20;53.60
65752;DHT22;52486;51.098;13.770;2022-08-19T06:27:44;28.10;53.70
65752;DHT22;52486;51.098;13.770;2022-08-19T06:30:10;28.10;53.80
65752;DHT22;52486;51.098;13.770;2022-08-19T06:32:37;28.00;54.40
65752;DHT22;52486;51.098;13.770;2022-08-19T06:35:04;27.90;54.50
65752;DHT22;52486;51.098;13.770;2022-08-19T06:37:30;27.90;54.60
65752;DHT22;52486;51.098;13.770;2022-08-19T06:39:56;27.90;54.50
65752;DHT22;52486;51.098;13.770;2022-08-19T06:42:21;28.00;54.30
65752;DHT22;52486;51.098;13.770;2022-08-19T06:44:48;28.10;54.20
65752;DHT22;52486;51.098;13.770;2022-08-19T06:47:19;28.10;53.90
65752;DHT22;52486;51.098;13.770;2022-08-19T06:49:45;28.10;53.90
65752;DHT22;52486;51.098;13.770;2022-08-19T06:52:11;28.20;54.00
65752;DHT22;52486;51.098;13.770;2022-08-19T06:54:38;28.20;54.00
65752;DHT22;52486;51.098;13.770;2022-08-19T06:57:05;28.20;54.40
65752;DHT22;52486;51.098;13.770;2022-08-19T06:59:32;28.20;54.40
65752;DHT22;52486;51.098;13.770;2022-08-19T07:02:01;28.10;55.00
65752;DHT22;52486;51.098;13.770;2022-08-19T07:04:29;27.90;55.30
65752;DHT22;52486;51.098;13.770;2022-08-19T07:06:59;27.80;56.20
65752;DHT22;52486;51.098;13.770;2022-08-19T07:09:26;27.70;55.90
65752;DHT22;52486;51.098;13.770;2022-08-19T07:11:53;27.70;56.10
65752;DHT22;52486;51.098;13.770;2022-08-19T07:14:23;27.70;56.40
65752;DHT22;52486;51.098;13.770;2022-08-19T07:16:51;27.70;57.20
65752;DHT22;52486;51.098;13.770;2022-08-19T07:19:18;27.70;56.30
65752;DHT22;52486;51.098;13.770;2022-08-19T07:21:44;27.70;55.90
65752;DHT22;52486;51.098;13.770;2022-08-19T07:24:10;27.80;56.00
65752;DHT22;52486;51.098;13.770;2022-08-19T07:26:40;27.90;56.00
65752;DHT22;52486;51.098;13.770;2022-08-19T07:29:06;27.90;56.00
65752;DHT22;52486;51.098;13.770;2022-08-19T07:31:32;27.90;56.20
65752;DHT22;52486;51.098;13.770;2022-08-19T07:34:04;27.80;56.60
65752;DHT22;52486;51.098;13.770;2022-08-19T07:36:33;27.60;57.30
65752;DHT22;52486;51.098;13.770;2022-08-19T07:39:02;27.20;58.20
65752;DHT22;52486;51.098;13.770;2022-08-19T07:41:29;27.20;58.00
65752;DHT22;52486;51.098;13.770;2022-08-19T07:43:58;27.10;58.40
65752;DHT22;52486;51.098;13.770;2022-08-19T07:46:24;27.00;58.80
65752;DHT22;52486;51.098;13.770;2022-08-19T07:48:51;26.90;59.10
65752;DHT22;52486;51.098;13.770;2022-08-19T07:51:20;26.90;59.30
65752;DHT22;52486;51.098;13.770;2022-08-19T07:53:47;26.80;59.70
65752;DHT22;52486;51.098;13.770;2022-08-19T07:56:14;26.80;59.60
65752;DHT22;52486;51.098;13.770;2022-08-19T07:58:44;26.80;59.70
65752;DHT22;52486;51.098;13.770;2022-08-19T08:01:15;26.80;59.40
65752;DHT22;52486;51.098;13.770;2022-08-19T08:03:41;26.90;59.40
65752;DHT22;52486;51.098;13.770;2022-08-19T08:06:25;27.00;59.10
65752;DHT22;52486;51.098;13.770;2022-08-19T08:09:11;27.10;58.80
65752;DHT22;52486;51.098;13.770;2022-08-19T08:11:52;27.20;59.10
65752;DHT22;52486;51.098;13.770;2022-08-19T08:14:23;27.10;59.40
65752;DHT22;52486;51.098;13.770;2022-08-19T08:16:50;27.00;59.20
65752;DHT22;52486;51.098;13.770;2022-08-19T08:19:19;26.90;59.60
65752;DHT22;52486;51.098;13.770;2022-08-19T08:21:46;26.80;59.80
65752;DHT22;52486;51.098;13.770;2022-08-19T08:24:12;26.80;60.10
65752;DHT22;52486;51.098;13.770;2022-08-19T08:26:38;26.70;60.30
65752;DHT22;52486;51.098;13.770;2022-08-19T08:29:04;26.70;60.30
65752;DHT22;52486;51.098;13.770;2022-08-19T08:31:30;26.80;60.20
65752;DHT22;52486;51.098;13.770;2022-08-19T08:33:55;26.90;60.30
65752;DHT22;52486;51.098;13.770;2022-08-19T08:36:21;26.90;60.10
65752;DHT22;52486;51.098;13.770;2022-08-19T08:38:47;27.00;59.90
65752;DHT22;52486;51.098;13.770;2022-08-19T08:44:17;27.10;59.80
65752;DHT22;52486;51.098;13.770;2022-08-19T08:46:50;27.10;59.90
65752;DHT22;52486;51.098;13.770;2022-08-19T08:52:04;27.10;60.40
65752;DHT22;52486;51.098;13.770;2022-08-19T08:54:40;27.10;60.10
65752;DHT22;52486;51.098;13.770;2022-08-19T08:57:14;27.10;60.30
65752;DHT22;52486;51.098;13.770;2022-08-19T08:59:41;27.10;59.90
65752;DHT22;52486;51.098;13.770;2022-08-19T09:02:09;27.10;59.90
65752;DHT22;52486;51.098;13.770;2022-08-19T09:04:38;27.20;59.90
65752;DHT22;52486;51.098;13.770;2022-08-19T09:10:29;27.20;59.90
65752;DHT22;52486;51.098;13.770;2022-08-19T09:13:20;27.20;59.90
65752;DHT22;52486;51.098;13.770;2022-08-19T09:16:05;27.20;59.90
65752;DHT22;52486;51.098;13.770;2022-08-19T09:19:00;27.20;59.60
65752;DHT22;52486;51.098;13.770;2022-08-19T09:21:26;27.30;59.00
65752;DHT22;52486;51.098;13.770;2022-08-19T09:23:53;27.40;59.00
65752;DHT22;52486;51.098;13.770;2022-08-19T09:26:22;27.50;58.60
65752;DHT22;52486;51.098;13.770;2022-08-19T09:28:50;27.50;58.50
65752;DHT22;52486;51.098;13.770;2022-08-19T09:31:21;27.60;58.40
65752;DHT22;52486;51.098;13.770;2022-08-19T09:33:48;27.70;58.20
65752;DHT22;52486;51.098;13.770;2022-08-19T09:36:15;27.80;58.40
65752;DHT22;52486;51.098;13.770;2022-08-19T09:38:41;27.90;58.30
